sensor_id;sensor_type;location;lat;lon;timestamp;pressure;altitude;pressure_sealevel;temperature;humidity
77979;BME280;67169;50.268;8.694;2024-01-30T00:00:46;101111.72;;;0.02;100.00
77979;BME280;67169;50.268;8.694;2024-01-30T00:03:12;101109.00;;;-0.02;100.00
77979;BME280;67169;50.268;8.694;2024-01-30T00:05:40;101110.78;;;-0.01;100.00
77979;BME280;67169;50.268;8.694;2024-01-30T00:08:07;101107.22;;;-0.03;100.00
77979;BME280;67169;50.268;8.694;2024-01-30T00:10:33;101112.44;;;-0.04;100.00
77979;BME280;67169;50.268;8.694;2024-01-30T00:13:00;101112.22;;;-0.13;100.00
77979;BME280;67169;50.268;8.694;2024-01-30T00:15:26;101106.94;;;-0.13;100.00
77979;BME280;67169;50.268;8.694;2024-01-30T00:17:53;101105.81;;;-0.21;100.00
77979;BME280;67169;50.268;8.694;2024-01-30T00:20:20;101109.31;;;-0.22;100.00
77979;BME280;67169;50.268;8.694;2024-01-30T00:22:48;101111.00;;;-0.26;100.00
77979;BME280;67169;50.268;8.694;2024-01-30T00:25:15;101109.22;;;-0.27;100.00
77979;BME280;67169;50.268;8.694;2024-01-30T00:27:41;101105.69;;;-0.26;100.00
77979;BME280;67169;50.268;8.694;2024-01-30T00:30:09;101106.66;;;-0.24;100.00
77979;BME280;67169;50.268;8.694;2024-01-30T00:32:35;101105.69;;;-0.26;100.00
77979;BME280;67169;50.268;8.694;2024-01-30T00:35:02;101106.72;;;-0.21;100.00
77979;BME280;67169;50.268;8.694;2024-01-30T00:37:29;101103.16;;;-0.21;100.00
77979;BME280;67169;50.268;8.694;2024-01-30T00:39:58;101101.38;;;-0.24;100.00
77979;BME280;67169;50.268;8.694;2024-01-30T00:42:24;101103.16;;;-0.23;100.00
77979;BME280;67169;50.268;8.694;2024-01-30T00:44:51;101090.78;;;-0.24;100.00
77979;BME280;67169;50.268;8.694;2024-01-30T00:47:18;101104.94;;;-0.22;100.00
77979;BME280;67169;50.268;8.694;2024-01-30T00:49:44;101106.59;;;-0.26;100.00
77979;BME280;67169;50.268;8.694;2024-01-30T00:52:11;101101.97;;;-0.34;100.00
77979;BME280;67169;50.268;8.694;2024-01-30T00:54:37;101101.09;;;-0.33;100.00
77979;BME280;67169;50.268;8.694;2024-01-30T00:57:06;101102.88;;;-0.32;100.00
77979;BME280;67169;50.268;8.694;2024-01-30T00:59:32;101102.78;;;-0.35;100.00
77979;BME280;67169;50.268;8.694;2024-01-30T01:01:59;101101.09;;;-0.33;100.00
77979;BME280;67169;50.268;8.694;2024-01-30T01:04:25;101106.66;;;-0.24;100.00
77979;BME280;67169;50.268;8.694;2024-01-30T01:06:52;101087.81;;;-0.36;100.00
77979;BME280;67169;50.268;8.694;2024-01-30T01:09:19;101104.75;;;-0.28;100.00
77979;BME280;67169;50.268;8.694;2024-01-30T01:11:45;101101.22;;;-0.29;100.00
77979;BME280;67169;50.268;8.694;2024-01-30T01:14:14;101101.19;;;-0.30;100.00
77979;BME280;67169;50.268;8.694;2024-01-30T01:16:41;101102.72;;;-0.38;100.00
77979;BME280;67169;50.268;8.694;2024-01-30T01:19:07;101109.72;;;-0.40;100.00
77979;BME280;67169;50.268;8.694;2024-01-30T01:21:34;101107.75;;;-0.47;100.00
77979;BME280;67169;50.268;8.694;2024-01-30T01:24:00;101110.44;;;-0.46;100.00
77979;BME280;67169;50.268;8.694;2024-01-30T01:26:27;101103.19;;;-0.53;100.00
77979;BME280;67169;50.268;8.694;2024-01-30T01:28:53;101110.16;;;-0.55;100.00
77979;BME280;67169;50.268;8.694;2024-01-30T01:31:21;101109.19;;;-0.59;100.00
77979;BME280;67169;50.268;8.694;2024-01-30T01:33:50;101105.56;;;-0.62;100.00
77979;BME280;67169;50.268;8.694;2024-01-30T01:36:16;101099.25;;;-0.67;100.00
77979;BME280;67169;50.268;8.694;2024-01-30T01:38:43;101102.66;;;-0.72;100.00
77979;BME280;67169;50.268;8.694;2024-01-30T01:41:09;101100.84;;;-0.73;100.00
77979;BME280;67169;50.268;8.694;2024-01-30T01:43:36;101098.09;;;-0.77;100.00
77979;BME280;67169;50.268;8.694;2024-01-30T01:46:03;101101.50;;;-0.81;100.00
77979;BME280;67169;50.268;8.694;2024-01-30T01:48:31;101088.97;;;-0.88;100.00
77979;BME280;67169;50.268;8.694;2024-01-30T01:50:58;101091.94;;;-0.76;100.00
77979;BME280;67169;50.268;8.694;2024-01-30T01:53:25;101093.00;;;-0.71;100.00
77979;BME280;67169;50.268;8.694;2024-01-30T01:55:52;101094.50;;;-0.79;100.00
77979;BME280;67169;50.268;8.694;2024-01-30T01:58:19;101090.84;;;-0.84;100.00
77979;BME280;67169;50.268;8.694;2024-01-30T02:00:47;101065.69;;;-1.02;100.00
77979;BME280;67169;50.268;8.694;2024-01-30T02:03:15;101088.81;;;-0.93;100.00
77979;BME280;67169;50.268;8.694;2024-01-30T02:05:48;101079.16;;;-0.92;100.00
77979;BME280;67169;50.268;8.694;2024-01-30T02:08:14;101078.31;;;-0.91;100.00
77979;BME280;67169;50.268;8.694;2024-01-30T02:10:41;101082.03;;;-0.85;100.00
77979;BME280;67169;50.268;8.694;2024-01-30T02:13:08;101086.44;;;-0.84;100.00
77979;BME280;67169;50.268;8.694;2024-01-30T02:15:34;101089.16;;;-0.82;100.00
77979;BME280;67169;50.268;8.694;2024-01-30T02:18:01;101093.44;;;-0.86;100.00
77979;BME280;67169;50.268;8.694;2024-01-30T02:20:29;101084.53;;;-0.89;100.00
77979;BME280;67169;50.268;8.694;2024-01-30T02:22:58;101083.59;;;-0.91;100.00
77979;BME280;67169;50.268;8.694;2024-01-30T02:25:33;101093.16;;;-0.95;100.00
77979;BME280;67169;50.268;8.694;2024-01-30T02:27:59;101080.00;;;-0.93;100.00
77979;BME280;67169;50.268;8.694;2024-01-30T02:30:26;101083.53;;;-0.93;100.00
77979;BME280;67169;50.268;8.694;2024-01-30T02:32:52;101085.25;;;-0.95;100.00
77979;BME280;67169;50.268;8.694;2024-01-30T02:35:19;101084.19;;;-1.00;100.00
77979;BME280;67169;50.268;8.694;2024-01-30T02:37:46;101084.06;;;-1.05;100.00
77979;BME280;67169;50.268;8.694;2024-01-30T02:40:14;101082.13;;;-1.10;100.00
77979;BME280;67169;50.268;8.694;2024-01-30T02:42:41;101082.22;;;-1.07;100.00
77979;BME280;67169;50.268;8.694;2024-01-30T02:45:09;101075.88;;;-1.14;100.00
77979;BME280;67169;50.268;8.694;2024-01-30T02:47:36;101076.72;;;-1.15;100.00
77979;BME280;67169;50.268;8.694;2024-01-30T02:50:03;101076.59;;;-1.20;100.00
77979;BME280;67169;50.268;8.694;2024-01-30T02:52:29;101075.50;;;-1.26;100.00
77979;BME280;67169;50.268;8.694;2024-01-30T02:54:56;101071.03;;;-1.29;100.00
77979;BME280;67169;50.268;8.694;2024-01-30T02:57:24;101079.63;;;-1.34;100.00
77979;BME280;67169;50.268;8.694;2024-01-30T02:59:50;101079.69;;;-1.33;100.00
77979;BME280;67169;50.268;8.694;2024-01-30T03:02:17;101086.66;;;-1.35;100.00
77979;BME280;67169;50.268;8.694;2024-01-30T03:04:44;101070.66;;;-1.41;100.00
77979;BME280;67169;50.268;8.694;2024-01-30T03:07:10;101083.88;;;-1.39;100.00
77979;BME280;67169;50.268;8.694;2024-01-30T03:09:37;101083.88;;;-1.39;100.00
77979;BME280;67169;50.268;8.694;2024-01-30T03:12:04;101083.00;;;-1.40;100.00
77979;BME280;67169;50.268;8.694;2024-01-30T03:14:33;101082.09;;;-1.40;100.00
77979;BME280;67169;50.268;8.694;2024-01-30T03:16:59;101083.84;;;-1.41;100.00
77979;BME280;67169;50.268;8.694;2024-01-30T03:19:26;101073.13;;;-1.46;100.00
77979;BME280;67169;50.268;8.694;2024-01-30T03:21:52;101071.28;;;-1.48;100.00
77979;BME280;67169;50.268;8.694;2024-01-30T03:24:19;101082.91;;;-1.43;100.00
77979;BME280;67169;50.268;8.694;2024-01-30T03:26:45;101079.28;;;-1.47;100.00
77979;BME280;67169;50.268;8.694;2024-01-30T03:29:15;101088.47;;;-1.34;100.00
77979;BME280;67169;50.268;8.694;2024-01-30T03:31:47;101080.19;;;-1.45;100.00
77979;BME280;67169;50.268;8.694;2024-01-30T03:34:13;101094.44;;;-1.39;100.00
77979;BME280;67169;50.268;8.694;2024-01-30T03:36:40;101080.28;;;-1.41;100.00
77979;BME280;67169;50.268;8.694;2024-01-30T03:39:06;101077.53;;;-1.46;100.00
77979;BME280;67169;50.268;8.694;2024-01-30T03:41:33;101085.41;;;-1.48;100.00
77979;BME280;67169;50.268;8.694;2024-01-30T03:43:59;101078.41;;;-1.46;100.00
77979;BME280;67169;50.268;8.694;2024-01-30T03:46:26;101077.38;;;-1.51;100.00
77979;BME280;67169;50.268;8.694;2024-01-30T03:48:54;101079.16;;;-1.50;100.00
77979;BME280;67169;50.268;8.694;2024-01-30T03:51:21;101083.59;;;-1.49;100.00
77979;BME280;67169;50.268;8.694;2024-01-30T03:53:48;101078.28;;;-1.50;100.00
77979;BME280;67169;50.268;8.694;2024-01-30T03:56:14;101071.25;;;-1.50;100.00
77979;BME280;67169;50.268;8.694;2024-01-30T03:58:41;101075.66;;;-1.49;100.00
77979;BME280;67169;50.268;8.694;2024-01-30T04:01:12;101077.41;;;-1.49;100.00
77979;BME280;67169;50.268;8.694;2024-01-30T04:03:39;101080.13;;;-1.48;100.00
77979;BME280;67169;50.268;8.694;2024-01-30T04:06:07;101073.88;;;-1.50;100.00
77979;BME280;67169;50.268;8.694;2024-01-30T04:08:33;101071.16;;;-1.53;100.00
77979;BME280;67169;50.268;8.694;2024-01-30T04:11:03;101069.47;;;-1.51;100.00
77979;BME280;67169;50.268;8.694;2024-01-30T04:13:30;101067.47;;;-1.31;100.00
77979;BME280;67169;50.268;8.694;2024-01-30T04:15:58;101072.34;;;-1.14;100.00
77979;BME280;67169;50.268;8.694;2024-01-30T04:18:25;101074.72;;;-0.93;100.00
77979;BME280;67169;50.268;8.694;2024-01-30T04:20:51;101068.72;;;-0.88;100.00
77979;BME280;67169;50.268;8.694;2024-01-30T04:23:19;101070.09;;;-0.72;100.00
77979;BME280;67169;50.268;8.694;2024-01-30T04:25:46;101061.19;;;-0.74;100.00
77979;BME280;67169;50.268;8.694;2024-01-30T04:28:13;101070.00;;;-0.75;100.00
77979;BME280;67169;50.268;8.694;2024-01-30T04:30:39;101071.94;;;-0.68;100.00
77979;BME280;67169;50.268;8.694;2024-01-30T04:33:06;101072.88;;;-0.66;100.00
77979;BME280;67169;50.268;8.694;2024-01-30T04:35:32;101066.09;;;-0.56;100.00
77979;BME280;67169;50.268;8.694;2024-01-30T04:37:59;101069.13;;;-0.42;100.00
77979;BME280;67169;50.268;8.694;2024-01-30T04:40:27;101069.22;;;-0.39;100.00
77979;BME280;67169;50.268;8.694;2024-01-30T04:42:53;101066.28;;;-0.50;100.00
77979;BME280;67169;50.268;8.694;2024-01-30T04:45:20;101066.31;;;-0.49;100.00
77979;BME280;67169;50.268;8.694;2024-01-30T04:47:47;101062.78;;;-0.49;100.00
77979;BME280;67169;50.268;8.694;2024-01-30T04:50:13;101069.50;;;-0.62;100.00
77979;BME280;67169;50.268;8.694;2024-01-30T04:52:40;101070.81;;;-0.76;100.00
77979;BME280;67169;50.268;8.694;2024-01-30T04:55:07;101076.78;;;-0.83;100.00
77979;BME280;67169;50.268;8.694;2024-01-30T04:57:35;101074.69;;;-0.95;100.00
77979;BME280;67169;50.268;8.694;2024-01-30T05:00:02;101077.09;;;-1.03;100.00
77979;BME280;67169;50.268;8.694;2024-01-30T05:02:30;101076.06;;;-1.08;100.00
77979;BME280;67169;50.268;8.694;2024-01-30T05:04:57;101075.97;;;-1.11;100.00
77979;BME280;67169;50.268;8.694;2024-01-30T05:07:24;101075.03;;;-1.13;100.00
77979;BME280;67169;50.268;8.694;2024-01-30T05:09:50;101085.44;;;-1.17;100.00
77979;BME280;67169;50.268;8.694;2024-01-30T05:12:17;101089.00;;;-1.17;100.00
77979;BME280;67169;50.268;8.694;2024-01-30T05:14:45;101090.47;;;-1.27;100.00
77979;BME280;67169;50.268;8.694;2024-01-30T05:17:12;101081.44;;;-1.33;100.00
77979;BME280;67169;50.268;8.694;2024-01-30T05:19:39;101092.09;;;-1.30;100.00
77979;BME280;67169;50.268;8.694;2024-01-30T05:22:05;101087.94;;;-1.22;100.00
77979;BME280;67169;50.268;8.694;2024-01-30T05:24:32;101085.34;;;-1.21;100.00
77979;BME280;67169;50.268;8.694;2024-01-30T05:26:58;101094.31;;;-1.15;100.00
77979;BME280;67169;50.268;8.694;2024-01-30T05:29:26;101092.66;;;-1.12;100.00
77979;BME280;67169;50.268;8.694;2024-01-30T05:31:54;101092.88;;;-1.04;100.00
77979;BME280;67169;50.268;8.694;2024-01-30T05:34:21;101092.00;;;-1.05;100.00
77979;BME280;67169;50.268;8.694;2024-01-30T05:36:47;101090.88;;;-1.13;100.00
77979;BME280;67169;50.268;8.694;2024-01-30T05:39:14;101090.56;;;-1.24;100.00
77979;BME280;67169;50.268;8.694;2024-01-30T05:41:41;101102.91;;;-1.23;100.00
77979;BME280;67169;50.268;8.694;2024-01-30T05:44:07;101098.69;;;-1.16;100.00
77979;BME280;67169;50.268;8.694;2024-01-30T05:46:35;101112.88;;;-1.12;100.00
77979;BME280;67169;50.268;8.694;2024-01-30T05:49:03;101106.97;;;-1.04;100.00
77979;BME280;67169;50.268;8.694;2024-01-30T05:51:30;101115.22;;;-0.93;100.00
77979;BME280;67169;50.268;8.694;2024-01-30T05:53:56;101109.94;;;-0.93;100.00
77979;BME280;67169;50.268;8.694;2024-01-30T05:56:23;101108.56;;;-0.80;100.00
77979;BME280;67169;50.268;8.694;2024-01-30T05:58:49;101112.56;;;-0.64;100.00
77979;BME280;67169;50.268;8.694;2024-01-30T06:01:16;101102.84;;;-0.65;100.00
77979;BME280;67169;50.268;8.694;2024-01-30T06:03:43;101110.13;;;-0.57;100.00
77979;BME280;67169;50.268;8.694;2024-01-30T06:06:11;101109.34;;;-0.53;100.00
77979;BME280;67169;50.268;8.694;2024-01-30T06:08:37;101112.22;;;-0.45;100.00
77979;BME280;67169;50.268;8.694;2024-01-30T06:11:04;101112.09;;;-0.50;100.00
77979;BME280;67169;50.268;8.694;2024-01-30T06:13:30;101112.97;;;-0.51;100.00
77979;BME280;67169;50.268;8.694;2024-01-30T06:15:58;101114.81;;;-0.48;100.00
77979;BME280;67169;50.268;8.694;2024-01-30T06:18:24;101106.81;;;-0.50;100.00
77979;BME280;67169;50.268;8.694;2024-01-30T06:20:52;101113.94;;;-0.47;100.00
77979;BME280;67169;50.268;8.694;2024-01-30T06:23:20;101111.19;;;-0.52;100.00
77979;BME280;67169;50.268;8.694;2024-01-30T06:25:46;101111.19;;;-0.52;100.00
77979;BME280;67169;50.268;8.694;2024-01-30T06:28:13;101107.66;;;-0.51;100.00
77979;BME280;67169;50.268;8.694;2024-01-30T06:30:40;101109.34;;;-0.53;100.00
77979;BME280;67169;50.268;8.694;2024-01-30T06:33:06;101109.28;;;-0.56;100.00
77979;BME280;67169;50.268;8.694;2024-01-30T06:35:33;101100.50;;;-0.55;100.00
77979;BME280;67169;50.268;8.694;2024-01-30T06:38:01;101105.13;;;-0.47;100.00
77979;BME280;67169;50.268;8.694;2024-01-30T06:40:29;101103.31;;;-0.49;100.00
77979;BME280;67169;50.268;8.694;2024-01-30T06:42:55;101104.94;;;-0.54;100.00
77979;BME280;67169;50.268;8.694;2024-01-30T06:45:22;101109.28;;;-0.56;100.00
77979;BME280;67169;50.268;8.694;2024-01-30T06:47:48;101103.97;;;-0.57;100.00
77979;BME280;67169;50.268;8.694;2024-01-30T06:50:15;101080.88;;;-0.63;100.00
77979;BME280;67169;50.268;8.694;2024-01-30T06:52:42;101105.53;;;-0.32;100.00
77979;BME280;67169;50.268;8.694;2024-01-30T06:55:09;101102.94;;;-0.31;100.00
77979;BME280;67169;50.268;8.694;2024-01-30T06:57:37;101099.44;;;-0.30;100.00
77979;BME280;67169;50.268;8.694;2024-01-30T07:00:05;101110.13;;;-0.25;100.00
77979;BME280;67169;50.268;8.694;2024-01-30T07:02:32;101105.78;;;-0.23;100.00
77979;BME280;67169;50.268;8.694;2024-01-30T07:04:58;101108.53;;;-0.18;100.00
77979;BME280;67169;50.268;8.694;2024-01-30T07:07:25;101103.34;;;-0.15;100.00
77979;BME280;67169;50.268;8.694;2024-01-30T07:09:52;101103.38;;;-0.14;100.00
77979;BME280;67169;50.268;8.694;2024-01-30T07:12:21;101098.94;;;-0.15;100.00
77979;BME280;67169;50.268;8.694;2024-01-30T07:14:49;101098.09;;;-0.14;100.00
77979;BME280;67169;50.268;8.694;2024-01-30T07:17:16;101107.81;;;-0.13;100.00
77979;BME280;67169;50.268;8.694;2024-01-30T07:19:43;101103.38;;;-0.14;100.00
77979;BME280;67169;50.268;8.694;2024-01-30T07:22:09;101108.59;;;-0.17;100.00
77979;BME280;67169;50.268;8.694;2024-01-30T07:24:36;101111.94;;;-0.24;100.00
77979;BME280;67169;50.268;8.694;2024-01-30T07:27:03;101112.16;;;-0.16;100.00
77979;BME280;67169;50.268;8.694;2024-01-30T07:29:29;101105.03;;;-0.17;100.00
77979;BME280;67169;50.268;8.694;2024-01-30T07:31:57;101107.75;;;-0.16;100.00
77979;BME280;67169;50.268;8.694;2024-01-30T07:34:24;101106.84;;;-0.16;100.00
77979;BME280;67169;50.268;8.694;2024-01-30T07:36:50;101106.00;;;-0.14;100.00
77979;BME280;67169;50.268;8.694;2024-01-30T07:39:17;101096.31;;;-0.15;100.00
77979;BME280;67169;50.268;8.694;2024-01-30T07:41:43;101110.41;;;-0.14;100.00
77979;BME280;67169;50.268;8.694;2024-01-30T07:44:10;101114.97;;;-0.09;100.00
77979;BME280;67169;50.268;8.694;2024-01-30T07:46:36;101110.66;;;-0.07;100.00
77979;BME280;67169;50.268;8.694;2024-01-30T07:49:04;101114.28;;;-0.02;100.00
77979;BME280;67169;50.268;8.694;2024-01-30T07:51:31;101112.63;;;0.02;100.00
77979;BME280;67169;50.268;8.694;2024-01-30T07:53:58;101111.84;;;0.06;100.00
77979;BME280;67169;50.268;8.694;2024-01-30T07:56:24;101115.38;;;0.07;100.00
77979;BME280;67169;50.268;8.694;2024-01-30T07:58:51;101089.22;;;-0.16;100.00
77979;BME280;67169;50.268;8.694;2024-01-30T08:01:18;101114.63;;;0.11;100.00
77979;BME280;67169;50.268;8.694;2024-01-30T08:03:45;101104.03;;;0.11;100.00
77979;BME280;67169;50.268;8.694;2024-01-30T08:06:13;101113.16;;;0.22;100.00
77979;BME280;67169;50.268;8.694;2024-01-30T08:08:39;101116.84;;;0.29;100.00
77979;BME280;67169;50.268;8.694;2024-01-30T08:11:06;101110.56;;;0.25;100.00
77979;BME280;67169;50.268;8.694;2024-01-30T08:13:32;101124.00;;;0.34;100.00
77979;BME280;67169;50.268;8.694;2024-01-30T08:15:59;101128.41;;;0.34;100.00
77979;BME280;67169;50.268;8.694;2024-01-30T08:18:26;101127.78;;;0.42;100.00
77979;BME280;67169;50.268;8.694;2024-01-30T08:20:52;101126.97;;;0.46;100.00
77979;BME280;67169;50.268;8.694;2024-01-30T08:23:20;101133.34;;;0.55;100.00
77979;BME280;67169;50.268;8.694;2024-01-30T08:25:46;101130.06;;;0.65;100.00
77979;BME280;67169;50.268;8.694;2024-01-30T08:28:13;101123.38;;;0.79;100.00
77979;BME280;67169;50.268;8.694;2024-01-30T08:30:40;101126.50;;;1.01;100.00
77979;BME280;67169;50.268;8.694;2024-01-30T08:33:06;101124.59;;;0.93;100.00
77979;BME280;67169;50.268;8.694;2024-01-30T08:35:33;101125.00;;;1.13;100.00
77979;BME280;67169;50.268;8.694;2024-01-30T08:37:59;101120.56;;;1.12;100.00
77979;BME280;67169;50.268;8.694;2024-01-30T08:40:27;101122.41;;;1.15;100.00
77979;BME280;67169;50.268;8.694;2024-01-30T08:42:54;101118.06;;;1.18;100.00
77979;BME280;67169;50.268;8.694;2024-01-30T08:45:20;101119.78;;;1.16;100.00
77979;BME280;67169;50.268;8.694;2024-01-30T08:47:47;101117.19;;;1.19;100.00
77979;BME280;67169;50.268;8.694;2024-01-30T08:50:14;101126.25;;;1.29;100.00
77979;BME280;67169;50.268;8.694;2024-01-30T08:52:40;101128.09;;;1.33;100.00
77979;BME280;67169;50.268;8.694;2024-01-30T08:55:07;101124.03;;;1.51;100.00
77979;BME280;67169;50.268;8.694;2024-01-30T08:57:35;101126.81;;;1.57;100.00
77979;BME280;67169;50.268;8.694;2024-01-30T09:00:03;101129.47;;;1.57;100.00
77979;BME280;67169;50.268;8.694;2024-01-30T09:02:31;101127.50;;;1.47;100.00
77979;BME280;67169;50.268;8.694;2024-01-30T09:04:58;101130.56;;;1.66;100.00
77979;BME280;67169;50.268;8.694;2024-01-30T09:07:25;101124.41;;;1.69;100.00
77979;BME280;67169;50.268;8.694;2024-01-30T09:09:51;101124.09;;;1.54;100.00
77979;BME280;67169;50.268;8.694;2024-01-30T09:12:18;101130.22;;;1.50;100.00
77979;BME280;67169;50.268;8.694;2024-01-30T09:14:46;101125.03;;;1.56;100.00
77979;BME280;67169;50.268;8.694;2024-01-30T09:17:12;101133.69;;;1.47;100.00
77979;BME280;67169;50.268;8.694;2024-01-30T09:19:40;101110.53;;;1.38;100.00
77979;BME280;67169;50.268;8.694;2024-01-30T09:22:06;101116.00;;;1.48;100.00
77979;BME280;67169;50.268;8.694;2024-01-30T09:24:33;101126.66;;;1.49;100.00
77979;BME280;67169;50.268;8.694;2024-01-30T09:27:00;101128.53;;;1.55;100.00
77979;BME280;67169;50.268;8.694;2024-01-30T09:29:26;101135.56;;;1.53;100.00
77979;BME280;67169;50.268;8.694;2024-01-30T09:31:54;101140.22;;;1.64;100.00
77979;BME280;67169;50.268;8.694;2024-01-30T09:34:21;101135.19;;;1.78;100.00
77979;BME280;67169;50.268;8.694;2024-01-30T09:36:47;101122.81;;;1.77;100.00
77979;BME280;67169;50.268;8.694;2024-01-30T09:39:14;101140.50;;;1.78;100.00
77979;BME280;67169;50.268;8.694;2024-01-30T09:41:44;101133.75;;;1.94;100.00
77979;BME280;67169;50.268;8.694;2024-01-30T09:44:12;101132.09;;;2.02;100.00
77979;BME280;67169;50.268;8.694;2024-01-30T09:46:40;101133.94;;;2.06;100.00
77979;BME280;67169;50.268;8.694;2024-01-30T09:49:08;101130.28;;;1.98;100.00
77979;BME280;67169;50.268;8.694;2024-01-30T09:51:36;101127.75;;;2.06;100.00
77979;BME280;67169;50.268;8.694;2024-01-30T09:54:02;101126.97;;;2.11;100.00
77979;BME280;67169;50.268;8.694;2024-01-30T09:56:29;101134.19;;;2.17;100.00
77979;BME280;67169;50.268;8.694;2024-01-30T09:58:55;101133.47;;;2.29;100.00
77979;BME280;67169;50.268;8.694;2024-01-30T10:01:22;101124.75;;;2.34;100.00
77979;BME280;67169;50.268;8.694;2024-01-30T10:03:50;101126.69;;;2.45;100.00
77979;BME280;67169;50.268;8.694;2024-01-30T10:06:19;101068.84;;;2.25;100.00
77979;BME280;67169;50.268;8.694;2024-01-30T10:08:47;101119.19;;;2.74;100.00
77979;BME280;67169;50.268;8.694;2024-01-30T10:11:14;101110.28;;;2.72;100.00
77979;BME280;67169;50.268;8.694;2024-01-30T10:13:41;101114.66;;;2.68;100.00
77979;BME280;67169;50.268;8.694;2024-01-30T10:16:07;101106.94;;;2.83;100.00
77979;BME280;67169;50.268;8.694;2024-01-30T10:18:34;101104.31;;;2.87;100.00
77979;BME280;67169;50.268;8.694;2024-01-30T10:21:00;101099.78;;;2.79;100.00
77979;BME280;67169;50.268;8.694;2024-01-30T10:23:29;101091.81;;;2.79;100.00
77979;BME280;67169;50.268;8.694;2024-01-30T10:25:57;101092.84;;;2.89;100.00
77979;BME280;67169;50.268;8.694;2024-01-30T10:28:26;101102.56;;;2.87;100.00
77979;BME280;67169;50.268;8.694;2024-01-30T10:30:58;101095.63;;;2.97;100.00
77979;BME280;67169;50.268;8.694;2024-01-30T10:33:26;101091.09;;;2.91;100.00
77979;BME280;67169;50.268;8.694;2024-01-30T10:35:54;101087.69;;;3.01;100.00
77979;BME280;67169;50.268;8.694;2024-01-30T10:38:25;101081.41;;;2.93;100.00
77979;BME280;67169;50.268;8.694;2024-01-30T10:40:56;101084.19;;;3.05;100.00
77979;BME280;67169;50.268;8.694;2024-01-30T10:43:24;101085.78;;;2.90;100.00
77979;BME280;67169;50.268;8.694;2024-01-30T10:45:57;101075.25;;;2.99;100.00
77979;BME280;67169;50.268;8.694;2024-01-30T10:48:30;101078.94;;;3.07;100.00
77979;BME280;67169;50.268;8.694;2024-01-30T10:50:58;101085.31;;;3.21;100.00
77979;BME280;67169;50.268;8.694;2024-01-30T10:53:26;101077.34;;;3.21;100.00
77979;BME280;67169;50.268;8.694;2024-01-30T10:55:56;101067.63;;;3.26;100.00
77979;BME280;67169;50.268;8.694;2024-01-30T10:58:24;101077.56;;;3.40;100.00
77979;BME280;67169;50.268;8.694;2024-01-30T11:00:52;101073.09;;;3.37;100.00
77979;BME280;67169;50.268;8.694;2024-01-30T11:03:19;101076.59;;;3.33;100.00
77979;BME280;67169;50.268;8.694;2024-01-30T11:05:49;101082.91;;;3.41;100.00
77979;BME280;67169;50.268;8.694;2024-01-30T11:08:22;101083.97;;;3.57;100.00
77979;BME280;67169;50.268;8.694;2024-01-30T11:10:56;101077.97;;;3.75;100.00
77979;BME280;67169;50.268;8.694;2024-01-30T11:13:27;101065.78;;;3.97;100.00
77979;BME280;67169;50.268;8.694;2024-01-30T11:15:54;101062.97;;;3.85;100.00
77979;BME280;67169;50.268;8.694;2024-01-30T11:18:24;101059.50;;;3.92;100.00
77979;BME280;67169;50.268;8.694;2024-01-30T11:20:51;101066.59;;;3.90;100.00
77979;BME280;67169;50.268;8.694;2024-01-30T11:23:18;101064.84;;;3.95;100.00
77979;BME280;67169;50.268;8.694;2024-01-30T11:25:45;101056.03;;;3.99;100.00
77979;BME280;67169;50.268;8.694;2024-01-30T11:28:15;101054.19;;;3.92;100.00
77979;BME280;67169;50.268;8.694;2024-01-30T11:30:42;101054.22;;;3.95;100.00
77979;BME280;67169;50.268;8.694;2024-01-30T11:33:10;101052.53;;;4.03;100.00
77979;BME280;67169;50.268;8.694;2024-01-30T11:35:38;101045.47;;;4.08;100.00
77979;BME280;67169;50.268;8.694;2024-01-30T11:38:07;101040.28;;;4.25;100.00
77979;BME280;67169;50.268;8.694;2024-01-30T11:40:34;101039.47;;;4.31;100.00
77979;BME280;67169;50.268;8.694;2024-01-30T11:43:03;101032.34;;;4.31;100.00
77979;BME280;67169;50.268;8.694;2024-01-30T11:45:33;101026.16;;;4.37;100.00
77979;BME280;67169;50.268;8.694;2024-01-30T11:48:00;101032.44;;;4.42;100.00
77979;BME280;67169;50.268;8.694;2024-01-30T11:50:28;101019.06;;;4.36;99.97
77979;BME280;67169;50.268;8.694;2024-01-30T11:52:55;101008.47;;;4.42;99.72
77979;BME280;67169;50.268;8.694;2024-01-30T11:55:23;101019.19;;;4.54;99.28
77979;BME280;67169;50.268;8.694;2024-01-30T11:57:50;101015.63;;;4.52;99.20
77979;BME280;67169;50.268;8.694;2024-01-30T12:00:17;101022.88;;;4.74;98.88
77979;BME280;67169;50.268;8.694;2024-01-30T12:02:51;101013.19;;;4.95;98.06
77979;BME280;67169;50.268;8.694;2024-01-30T12:05:21;101008.84;;;5.14;97.74
77979;BME280;67169;50.268;8.694;2024-01-30T12:07:48;100983.94;;;5.07;97.42
77979;BME280;67169;50.268;8.694;2024-01-30T12:10:14;100994.66;;;5.16;96.84
77979;BME280;67169;50.268;8.694;2024-01-30T12:12:42;100985.84;;;5.45;96.77
77979;BME280;67169;50.268;8.694;2024-01-30T12:15:09;100990.34;;;5.77;95.82
77979;BME280;67169;50.268;8.694;2024-01-30T12:17:36;100976.97;;;5.52;95.04
77979;BME280;67169;50.268;8.694;2024-01-30T12:20:05;100988.53;;;5.66;94.80
77979;BME280;67169;50.268;8.694;2024-01-30T12:22:33;100991.22;;;5.65;94.51
77979;BME280;67169;50.268;8.694;2024-01-30T12:25:00;100993.88;;;5.62;94.35
77979;BME280;67169;50.268;8.694;2024-01-30T12:27:26;100991.22;;;5.69;93.94
77979;BME280;67169;50.268;8.694;2024-01-30T12:29:56;100984.09;;;5.64;93.53
77979;BME280;67169;50.268;8.694;2024-01-30T12:32:23;100982.28;;;5.52;93.55
77979;BME280;67169;50.268;8.694;2024-01-30T12:34:50;100977.88;;;5.59;93.55
77979;BME280;67169;50.268;8.694;2024-01-30T12:37:18;100977.88;;;5.72;93.25
77979;BME280;67169;50.268;8.694;2024-01-30T12:39:48;100975.22;;;5.89;93.03
77979;BME280;67169;50.268;8.694;2024-01-30T12:42:14;100977.03;;;6.27;92.74
77979;BME280;67169;50.268;8.694;2024-01-30T12:44:41;100969.00;;;6.23;92.18